Moline, Illinois
Current Conditions -  °F | °C
As of 8:52 PM on Tuesday 25 Nov 2014 (Local Time) from KMLI Reporting Station
Clear Clear  
Wind Chill: 10°   Ceiling: Unl
Heat Index: 17°   Visibility: 10mi
Dew Point: 13°   Wind: 5mph
Humidity: 84%   Direction: 80°E
Pressure: 30.15"   Gusts: NA
Location:  41.49°N, 90.49°W
Report Text: KMLI 260252Z 08004KT 10SM CLR M08/M11 A3015 RMK AO2 SLP221 I1000 I3000 T10831106 53002 $
Loading
Personal Weather Stations






























Interactive Weather Map New forecast layout! Learn more

10-Day Weather Forecast

Advertisements
Track Severe Weather on mobile